createdAt,value
2023-01-03T00:00:00.709Z,100.00
2023-01-03T00:01:09.396Z,100.00
2023-01-03T00:02:14.124Z,100.00
2023-01-03T00:03:17.365Z,100.00
2023-01-03T00:04:22.286Z,100.00
2023-01-03T00:05:27.019Z,100.00
2023-01-03T00:06:34.626Z,100.00
2023-01-03T00:07:36.759Z,100.00
2023-01-03T00:08:41.248Z,100.00
2023-01-03T00:09:45.994Z,100.00
2023-01-03T00:10:47.900Z,100.00
2023-01-03T00:12:06.517Z,100.00
2023-01-03T00:13:11.371Z,100.00
2023-01-03T00:14:16.571Z,100.00
2023-01-03T00:15:21.390Z,100.00
2023-01-03T00:16:23.419Z,100.00
2023-01-03T00:17:28.203Z,100.00
2023-01-03T00:18:30.188Z,100.00
2023-01-03T00:19:37.755Z,100.00
2023-01-03T00:20:43.071Z,100.00
2023-01-03T00:21:47.974Z,100.00
2023-01-03T00:22:50.019Z,100.00
2023-01-03T00:23:54.566Z,100.00
2023-01-03T00:24:59.157Z,100.00
2023-01-03T00:26:09.078Z,100.00
2023-01-03T00:27:14.033Z,100.00
2023-01-03T00:28:15.931Z,100.00
2023-01-03T00:29:20.959Z,100.00
2023-01-03T00:30:22.915Z,100.00
2023-01-03T00:31:27.823Z,100.00
2023-01-03T00:32:29.873Z,100.00
2023-01-03T00:33:34.770Z,100.00
2023-01-03T00:34:37.276Z,100.00
2023-01-03T00:35:44.466Z,100.00
2023-01-03T00:36:46.473Z,100.00
2023-01-03T00:37:50.983Z,100.00
2023-01-03T00:38:53.038Z,100.00
2023-01-03T00:39:57.569Z,100.00
2023-01-03T00:41:05.298Z,100.00
2023-01-03T00:42:10.559Z,100.00
2023-01-03T00:43:27.528Z,100.00
2023-01-03T00:44:32.167Z,100.00
2023-01-03T00:45:35.710Z,100.00
2023-01-03T00:46:40.557Z,100.00
2023-01-03T00:47:42.532Z,100.00
2023-01-03T00:48:47.420Z,100.00
2023-01-03T00:49:52.119Z,100.00
2023-01-03T00:50:56.846Z,100.00
2023-01-03T00:52:01.393Z,100.00
2023-01-03T00:53:03.367Z,100.00
2023-01-03T00:54:09.361Z,100.00
2023-01-03T00:55:11.641Z,100.00
2023-01-03T00:56:18.093Z,100.00
2023-01-03T00:57:22.630Z,100.00
2023-01-03T00:58:24.565Z,100.00
2023-01-03T00:59:29.135Z,100.00
2023-01-03T01:00:31.265Z,100.00
2023-01-03T01:01:45.836Z,100.00
2023-01-03T01:02:49.048Z,100.00
2023-01-03T01:03:56.266Z,100.00
2023-01-03T01:05:01.145Z,100.00
2023-01-03T01:06:14.685Z,100.00
2023-01-03T01:07:19.175Z,100.00
2023-01-03T01:08:21.123Z,100.00
2023-01-03T01:09:27.392Z,100.00
2023-01-03T01:10:29.416Z,100.00
2023-01-03T01:11:34.388Z,100.00
2023-01-03T01:12:36.346Z,100.00
2023-01-03T01:13:41.372Z,100.00
2023-01-03T01:14:43.300Z,100.00
2023-01-03T01:15:47.995Z,100.00
2023-01-03T01:16:55.959Z,100.00
2023-01-03T01:17:58.441Z,100.00
2023-01-03T01:19:03.399Z,100.00
2023-01-03T01:20:06.595Z,100.00
2023-01-03T01:21:16.172Z,100.00
2023-01-03T01:22:18.198Z,100.00
2023-01-03T01:23:22.712Z,100.00
2023-01-03T01:24:25.216Z,100.00
2023-01-03T01:25:29.837Z,100.00
2023-01-03T01:26:31.784Z,100.00
2023-01-03T01:27:36.333Z,100.00
2023-01-03T01:28:38.714Z,100.00
2023-01-03T01:29:43.258Z,100.00
2023-01-03T01:30:45.222Z,100.00
2023-01-03T01:31:50.389Z,100.00
2023-01-03T01:32:52.447Z,100.00
2023-01-03T01:33:58.635Z,100.00
2023-01-03T01:35:03.181Z,100.00
2023-01-03T01:36:09.129Z,100.00
2023-01-03T01:37:16.428Z,100.00
2023-01-03T01:38:18.346Z,100.00
2023-01-03T01:39:24.796Z,100.00
2023-01-03T01:40:27.450Z,100.00
2023-01-03T01:41:46.230Z,100.00
2023-01-03T01:43:03.250Z,100.00
2023-01-03T01:44:20.529Z,100.00
2023-01-03T01:45:25.107Z,100.00
2023-01-03T01:46:29.434Z,100.00
2023-01-03T01:47:39.069Z,100.00
2023-01-03T01:48:41.607Z,100.00
2023-01-03T01:49:47.970Z,100.00
2023-01-03T01:50:54.827Z,100.00
2023-01-03T01:52:00.156Z,100.00
2023-01-03T01:53:07.462Z,100.00
2023-01-03T01:54:13.788Z,100.00
2023-01-03T01:55:20.658Z,100.00
2023-01-03T01:56:30.834Z,100.00
2023-01-03T01:57:34.880Z,100.00
2023-01-03T01:58:41.535Z,100.00
2023-01-03T01:59:44.312Z,100.00
2023-01-03T02:00:48.867Z,100.00
2023-01-03T02:01:52.793Z,100.00
2023-01-03T02:02:58.491Z,100.00
2023-01-03T02:04:04.413Z,100.00
2023-01-03T02:05:12.277Z,100.00
2023-01-03T02:06:17.172Z,100.00
2023-01-03T02:07:23.797Z,100.00
2023-01-03T02:08:28.578Z,100.00
2023-01-03T02:09:35.572Z,100.00
2023-01-03T02:10:51.850Z,100.00
2023-01-03T02:12:11.942Z,100.00
2023-01-03T02:13:26.271Z,100.00
2023-01-03T02:14:42.817Z,100.00
2023-01-03T02:16:00.036Z,100.00
2023-01-03T02:17:10.893Z,100.00
2023-01-03T02:18:35.970Z,100.00
2023-01-03T02:20:01.469Z,100.00
2023-01-03T02:21:40.284Z,100.00
2023-01-03T02:23:26.293Z,100.00
2023-01-03T02:24:50.615Z,100.00
2023-01-03T02:26:27.549Z,100.00
2023-01-03T02:28:00.813Z,100.00
2023-01-03T02:29:21.625Z,100.00
2023-01-03T02:30:47.885Z,100.00
2023-01-03T02:31:57.162Z,100.00
2023-01-03T02:33:11.463Z,100.00
2023-01-03T02:34:21.608Z,100.00
2023-01-03T02:35:33.378Z,100.00
2023-01-03T02:36:47.539Z,100.00
2023-01-03T02:38:00.195Z,100.00
2023-01-03T02:39:11.174Z,100.00
2023-01-03T02:40:25.568Z,100.00
2023-01-03T02:41:37.859Z,100.00
2023-01-03T02:43:05.932Z,100.00
2023-01-03T02:44:16.147Z,100.00
2023-01-03T02:45:27.350Z,100.00
2023-01-03T02:46:43.232Z,100.00
2023-01-03T02:47:50.520Z,100.00
2023-01-03T02:49:00.409Z,100.00
2023-01-03T02:50:05.008Z,100.00
2023-01-03T02:51:14.346Z,100.00
2023-01-03T02:52:22.366Z,100.00
2023-01-03T02:53:30.898Z,100.00
2023-01-03T02:54:38.755Z,100.00
2023-01-03T02:55:45.888Z,100.00
2023-01-03T02:56:52.544Z,100.00
2023-01-03T02:58:03.772Z,100.00
2023-01-03T02:59:12.131Z,100.00
2023-01-03T03:00:20.340Z,100.00
2023-01-03T03:01:23.478Z,100.00
2023-01-03T03:02:35.336Z,100.00
2023-01-03T03:03:39.693Z,100.00
2023-01-03T03:04:46.041Z,100.00
2023-01-03T03:05:53.096Z,100.00
2023-01-03T03:07:04.445Z,100.00
2023-01-03T03:08:07.481Z,100.00
2023-01-03T03:09:12.051Z,100.00
2023-01-03T03:10:29.175Z,100.00
2023-01-03T03:11:50.916Z,100.00
2023-01-03T03:13:11.217Z,100.00
2023-01-03T03:14:20.469Z,100.00
2023-01-03T03:15:30.353Z,100.00
2023-01-03T03:16:50.854Z,100.00
2023-01-03T03:18:02.976Z,100.00
2023-01-03T03:21:05.020Z,100.00
2023-01-03T03:22:29.321Z,100.00
2023-01-03T03:23:50.018Z,100.00
2023-01-03T03:24:57.582Z,100.00
2023-01-03T03:26:10.967Z,100.00
2023-01-03T03:27:32.405Z,100.00
2023-01-03T03:28:39.237Z,100.00
2023-01-03T03:29:45.730Z,100.00
2023-01-03T03:31:04.038Z,100.00
2023-01-03T03:32:11.295Z,100.00
2023-01-03T03:33:19.139Z,100.00
2023-01-03T03:34:27.466Z,100.00
2023-01-03T03:35:34.309Z,100.00
2023-01-03T03:36:46.863Z,100.00
2023-01-03T03:37:54.876Z,100.00
2023-01-03T03:38:59.613Z,100.00
2023-01-03T03:40:17.041Z,100.00
2023-01-03T03:41:42.945Z,100.00
2023-01-03T03:43:05.092Z,100.00
2023-01-03T03:44:34.476Z,100.00
2023-01-03T03:45:47.799Z,100.00
2023-01-03T03:47:04.061Z,100.00
2023-01-03T03:48:12.994Z,100.00
2023-01-03T03:49:36.761Z,100.00
2023-01-03T03:50:46.245Z,100.00
2023-01-03T03:51:50.512Z,100.00
2023-01-03T03:53:00.826Z,100.00
2023-01-03T03:54:08.235Z,100.00
2023-01-03T03:55:18.227Z,100.00
2023-01-03T03:56:28.396Z,100.00
2023-01-03T03:57:38.539Z,100.00
2023-01-03T03:58:42.932Z,100.00
2023-01-03T03:59:52.718Z,100.00
2023-01-03T04:00:56.771Z,100.00
2023-01-03T04:02:04.095Z,100.00
2023-01-03T04:03:09.446Z,100.00
2023-01-03T04:04:18.334Z,100.00
2023-01-03T04:05:25.177Z,100.00
2023-01-03T04:06:36.638Z,100.00
2023-01-03T04:07:41.309Z,100.00
2023-01-03T04:08:43.535Z,100.00
2023-01-03T04:09:48.184Z,100.00
2023-01-03T04:10:50.708Z,100.00
2023-01-03T04:11:55.319Z,100.00
2023-01-03T04:12:57.367Z,100.00
2023-01-03T04:14:01.927Z,100.00
2023-01-03T04:15:07.041Z,100.00
2023-01-03T04:16:11.739Z,100.00
2023-01-03T04:17:13.831Z,100.00
2023-01-03T04:18:18.456Z,100.00
2023-01-03T04:19:20.451Z,100.00
2023-01-03T04:20:27.831Z,100.00
2023-01-03T04:21:29.871Z,100.00
2023-01-03T04:22:34.419Z,100.00
2023-01-03T04:23:36.562Z,100.00
2023-01-03T04:24:41.626Z,100.00
2023-01-03T04:25:43.641Z,100.00
2023-01-03T04:26:48.571Z,100.00
2023-01-03T04:27:50.600Z,100.00
2023-01-03T04:28:55.156Z,100.00
2023-01-03T04:29:57.296Z,100.00
2023-01-03T04:31:01.895Z,100.00
2023-01-03T04:32:04.055Z,100.00
2023-01-03T04:33:08.658Z,100.00
2023-01-03T04:34:10.660Z,100.00
2023-01-03T04:35:15.252Z,100.00
2023-01-03T04:36:19.893Z,100.00
2023-01-03T04:37:24.534Z,100.00
2023-01-03T04:38:29.075Z,100.00
2023-01-03T04:39:31.132Z,100.00
2023-01-03T04:40:38.733Z,100.00
2023-01-03T04:41:40.854Z,100.00
2023-01-03T04:42:57.895Z,100.00
2023-01-03T04:44:05.509Z,100.00
2023-01-03T04:45:08.940Z,100.00
2023-01-03T04:46:10.967Z,100.00
2023-01-03T04:47:15.550Z,100.00
2023-01-03T04:48:17.697Z,100.00
2023-01-03T04:49:22.688Z,100.00
2023-01-03T04:50:24.698Z,100.00
2023-01-03T04:51:32.866Z,100.00
2023-01-03T04:52:34.829Z,100.00
2023-01-03T04:53:39.455Z,100.00
2023-01-03T04:54:41.753Z,100.00
2023-01-03T04:55:49.528Z,100.00
2023-01-03T04:56:51.460Z,100.00
2023-01-03T04:57:56.038Z,100.00
2023-01-03T04:58:58.317Z,100.00
2023-01-03T05:00:02.886Z,100.00
2023-01-03T05:01:08.322Z,100.00
2023-01-03T05:02:13.242Z,100.00
2023-01-03T05:03:15.363Z,100.00
2023-01-03T05:04:20.421Z,100.00
2023-01-03T05:05:22.502Z,100.00
2023-01-03T05:06:27.085Z,100.00
2023-01-03T05:07:31.720Z,100.00
2023-01-03T05:08:37.158Z,100.00
2023-01-03T05:09:39.131Z,100.00
2023-01-03T05:10:44.132Z,100.00
2023-01-03T05:11:46.141Z,100.00
2023-01-03T05:12:59.972Z,100.00
2023-01-03T05:14:02.068Z,100.00
2023-01-03T05:15:07.161Z,100.00
2023-01-03T05:16:11.295Z,100.00
2023-01-03T05:17:15.925Z,100.00
2023-01-03T05:18:17.955Z,100.00
2023-01-03T05:19:22.734Z,100.00
2023-01-03T05:20:39.994Z,100.00
2023-01-03T05:21:56.979Z,100.00
2023-01-03T05:23:16.575Z,100.00
2023-01-03T05:24:33.594Z,100.00
2023-01-03T05:25:54.049Z,100.00
2023-01-03T05:26:57.153Z,100.00
2023-01-03T05:28:02.350Z,100.00
2023-01-03T05:29:04.505Z,100.00
2023-01-03T05:30:10.506Z,100.00
2023-01-03T05:31:12.991Z,100.00
2023-01-03T05:32:17.603Z,100.00
2023-01-03T05:33:19.795Z,100.00
2023-01-03T05:34:24.457Z,100.00
2023-01-03T05:35:26.378Z,100.00
2023-01-03T05:36:30.955Z,100.00
2023-01-03T05:37:33.019Z,100.00
2023-01-03T05:38:41.127Z,100.00
2023-01-03T05:39:43.127Z,100.00
2023-01-03T05:40:47.766Z,100.00
2023-01-03T05:42:02.178Z,100.00
2023-01-03T05:43:06.956Z,100.00
2023-01-03T05:44:08.868Z,100.00
2023-01-03T05:45:14.193Z,100.00
2023-01-03T05:46:16.206Z,100.00
2023-01-03T05:47:20.795Z,100.00
2023-01-03T05:48:23.184Z,100.00
2023-01-03T05:49:28.199Z,100.00
2023-01-03T05:50:30.247Z,100.00
2023-01-03T05:51:35.014Z,100.00
2023-01-03T05:52:37.005Z,100.00
2023-01-03T05:53:44.194Z,100.00
2023-01-03T05:54:46.132Z,100.00
2023-01-03T05:55:50.708Z,100.00
2023-01-03T05:56:52.712Z,100.00
2023-01-03T05:57:57.280Z,100.00
2023-01-03T05:58:59.596Z,100.00
2023-01-03T06:00:04.154Z,100.00
2023-01-03T06:01:09.355Z,100.00
2023-01-03T06:02:14.160Z,100.00
2023-01-03T06:03:18.926Z,100.00
2023-01-03T06:04:21.004Z,100.00
2023-01-03T06:05:26.031Z,100.00
2023-01-03T06:06:28.069Z,100.00
2023-01-03T06:07:34.163Z,100.00
2023-01-03T06:08:36.396Z,100.00
2023-01-03T06:09:43.695Z,100.00
2023-01-03T06:10:45.767Z,100.00
2023-01-03T06:11:50.627Z,100.00
2023-01-03T06:12:52.599Z,100.00
2023-01-03T06:13:57.217Z,100.00
2023-01-03T06:14:59.180Z,100.00
2023-01-03T06:16:24.488Z,100.00
2023-01-03T06:17:41.990Z,100.00
2023-01-03T06:18:46.563Z,100.00
2023-01-03T06:19:48.566Z,100.00
2023-01-03T06:20:53.123Z,100.00
2023-01-03T06:21:55.103Z,100.00
2023-01-03T06:22:59.926Z,100.00
2023-01-03T06:24:02.054Z,100.00
2023-01-03T06:25:09.722Z,100.00
2023-01-03T06:26:11.796Z,100.00
2023-01-03T06:27:16.418Z,100.00
2023-01-03T06:28:18.341Z,100.00
2023-01-03T06:29:23.018Z,100.00
2023-01-03T06:30:25.020Z,100.00
2023-01-03T06:31:30.117Z,100.00
2023-01-03T06:32:32.214Z,100.00
2023-01-03T06:33:37.073Z,100.00
2023-01-03T06:34:39.351Z,100.00
2023-01-03T06:35:43.904Z,100.00
2023-01-03T06:36:45.851Z,100.00
2023-01-03T06:37:50.389Z,100.00
2023-01-03T06:38:52.448Z,100.00
2023-01-03T06:39:57.068Z,100.00
2023-01-03T06:41:02.053Z,100.00
2023-01-03T06:42:20.176Z,100.00
2023-01-03T06:43:24.758Z,100.00
2023-01-03T06:44:26.775Z,100.00
2023-01-03T06:45:43.839Z,100.00
2023-01-03T06:47:00.943Z,100.00
2023-01-03T06:48:22.219Z,100.00
2023-01-03T06:49:39.275Z,100.00
2023-01-03T06:50:57.320Z,100.00
2023-01-03T06:52:14.414Z,100.00
2023-01-03T06:53:21.613Z,100.00
2023-01-03T06:54:28.011Z,100.00
2023-01-03T06:55:30.054Z,100.00
2023-01-03T06:56:37.247Z,100.00
2023-01-03T06:57:39.208Z,100.00
2023-01-03T06:58:43.758Z,100.00
2023-01-03T06:59:45.740Z,100.00
2023-01-03T07:00:50.329Z,100.00
2023-01-03T07:01:53.552Z,100.00
2023-01-03T07:02:58.317Z,100.00
2023-01-03T07:04:01.806Z,100.00
2023-01-03T07:05:06.714Z,100.00
2023-01-03T07:06:11.345Z,100.00
2023-01-03T07:07:13.317Z,100.00
2023-01-03T07:08:17.947Z,100.00
2023-01-03T07:09:20.011Z,100.00
2023-01-03T07:10:24.617Z,100.00
2023-01-03T07:11:26.951Z,100.00
2023-01-03T07:12:46.571Z,100.00
2023-01-03T07:14:03.577Z,100.00
2023-01-03T07:15:06.566Z,100.00
2023-01-03T07:16:16.558Z,100.00
2023-01-03T07:17:21.285Z,100.00
2023-01-03T07:18:23.670Z,100.00
2023-01-03T07:19:29.043Z,100.00
2023-01-03T07:20:31.026Z,100.00
2023-01-03T07:21:37.446Z,100.00
2023-01-03T07:22:39.403Z,100.00
2023-01-03T07:23:44.181Z,100.00
2023-01-03T07:24:48.782Z,100.00
2023-01-03T07:25:54.825Z,100.00
2023-01-03T07:26:59.493Z,100.00
2023-01-03T07:28:08.064Z,100.00
2023-01-03T07:29:14.126Z,100.00
2023-01-03T07:30:16.180Z,100.00
2023-01-03T07:31:21.262Z,100.00
2023-01-03T07:32:23.287Z,100.00
2023-01-03T07:33:27.850Z,100.00
2023-01-03T07:34:30.919Z,100.00
2023-01-03T07:35:35.873Z,100.00
2023-01-03T07:36:40.625Z,100.00
2023-01-03T07:37:42.608Z,100.00
2023-01-03T07:38:48.264Z,100.00
2023-01-03T07:39:52.815Z,100.00
2023-01-03T07:40:56.623Z,100.00
2023-01-03T07:42:13.635Z,100.00
2023-01-03T07:43:33.283Z,100.00
2023-01-03T07:44:37.849Z,100.00
2023-01-03T07:45:41.365Z,100.00
2023-01-03T07:46:46.003Z,100.00
2023-01-03T07:47:48.056Z,100.00
2023-01-03T07:48:54.102Z,100.00
2023-01-03T07:49:58.806Z,100.00
2023-01-03T07:51:01.036Z,100.00
2023-01-03T07:52:05.636Z,100.00
2023-01-03T07:53:08.829Z,100.00
2023-01-03T07:54:13.412Z,100.00
2023-01-03T07:55:15.621Z,100.00
2023-01-03T07:56:21.023Z,100.00
2023-01-03T07:57:22.988Z,100.00
2023-01-03T07:58:30.165Z,100.00
2023-01-03T07:59:34.734Z,100.00
2023-01-03T08:00:36.662Z,100.00
2023-01-03T08:01:41.520Z,100.00
2023-01-03T08:02:43.806Z,100.00
2023-01-03T08:03:48.835Z,100.00
2023-01-03T08:04:50.897Z,100.00
2023-01-03T08:05:55.447Z,100.00
2023-01-03T08:07:00.431Z,100.00
2023-01-03T08:08:03.476Z,100.00
2023-01-03T08:09:20.559Z,100.00
2023-01-03T08:10:37.603Z,100.00
2023-01-03T08:11:54.986Z,100.00
2023-01-03T08:13:11.974Z,100.00
2023-01-03T08:14:25.313Z,100.00
2023-01-03T08:15:28.375Z,100.00
2023-01-03T08:16:32.994Z,100.00
2023-01-03T08:17:35.048Z,100.00
2023-01-03T08:18:40.153Z,100.00
2023-01-03T08:19:45.960Z,100.00
2023-01-03T08:20:51.603Z,100.00
2023-01-03T08:21:53.696Z,100.00
2023-01-03T08:22:58.286Z,100.00
2023-01-03T08:24:02.867Z,100.00
2023-01-03T08:25:05.537Z,100.00
2023-01-03T08:26:12.203Z,100.00
2023-01-03T08:27:14.206Z,100.00
2023-01-03T08:28:19.192Z,100.00
2023-01-03T08:29:26.322Z,100.00
2023-01-03T08:30:29.715Z,100.00
2023-01-03T08:31:37.827Z,100.00
2023-01-03T08:32:40.014Z,100.00
2023-01-03T08:33:51.621Z,100.00
2023-01-03T08:34:54.912Z,100.00
2023-01-03T08:36:05.172Z,100.00
2023-01-03T08:37:10.872Z,100.00
2023-01-03T08:38:46.493Z,100.00
2023-01-03T08:39:56.146Z,100.00
2023-01-03T08:41:03.484Z,100.00
2023-01-03T08:42:08.360Z,100.00
2023-01-03T08:43:15.540Z,100.00
2023-01-03T08:44:20.125Z,100.00
2023-01-03T08:45:29.952Z,100.00
2023-01-03T08:46:33.509Z,100.00
2023-01-03T08:47:38.631Z,100.00
2023-01-03T08:48:43.835Z,100.00
2023-01-03T08:49:45.837Z,100.00
2023-01-03T08:50:50.857Z,100.00
2023-01-03T08:51:53.337Z,100.00
2023-01-03T08:52:58.024Z,100.00
2023-01-03T08:54:03.488Z,100.00
2023-01-03T08:55:06.575Z,100.00
2023-01-03T08:56:11.446Z,100.00
2023-01-03T08:57:15.245Z,100.00
2023-01-03T08:58:19.965Z,100.00
2023-01-03T08:59:25.316Z,100.00
2023-01-03T09:00:33.624Z,100.00
2023-01-03T09:01:36.152Z,100.00
2023-01-03T09:02:41.272Z,100.00
2023-01-03T09:03:43.849Z,100.00
2023-01-03T09:04:52.575Z,100.00
2023-01-03T09:05:58.313Z,100.00
2023-01-03T09:07:02.892Z,100.00
2023-01-03T09:08:08.652Z,100.00
2023-01-03T09:09:13.283Z,100.00
2023-01-03T09:10:18.943Z,100.00
2023-01-03T09:11:24.386Z,100.00
2023-01-03T09:12:30.227Z,100.00
2023-01-03T09:13:35.026Z,100.00
2023-01-03T09:14:37.482Z,100.00
2023-01-03T09:15:45.518Z,100.00
2023-01-03T09:16:49.429Z,100.00
2023-01-03T09:17:54.196Z,100.00
2023-01-03T09:18:59.698Z,100.00
2023-01-03T09:20:04.743Z,100.00
2023-01-03T09:21:09.564Z,100.00
2023-01-03T09:22:11.537Z,100.00
2023-01-03T09:23:16.127Z,100.00
2023-01-03T09:24:20.787Z,100.00
2023-01-03T09:25:29.219Z,100.00
2023-01-03T09:26:34.513Z,100.00
2023-01-03T09:27:39.066Z,100.00
2023-01-03T09:28:43.684Z,100.00
2023-01-03T09:29:49.117Z,100.00
2023-01-03T09:30:58.226Z,100.00
2023-01-03T09:32:39.044Z,100.00
2023-01-03T09:33:44.315Z,100.00
2023-01-03T09:34:46.476Z,100.00
2023-01-03T09:35:52.716Z,100.00
2023-01-03T09:37:00.102Z,100.00
2023-01-03T09:38:06.552Z,100.00
2023-01-03T09:39:12.482Z,100.00
2023-01-03T09:40:14.864Z,100.00
2023-01-03T09:41:24.507Z,100.00
2023-01-03T09:42:43.933Z,100.00
2023-01-03T09:43:51.915Z,100.00
2023-01-03T09:44:54.824Z,100.00
2023-01-03T09:46:02.924Z,100.00
2023-01-03T09:47:05.533Z,100.00
2023-01-03T09:48:16.305Z,100.00
2023-01-03T09:49:21.352Z,100.00
2023-01-03T09:50:44.395Z,100.00
2023-01-03T09:52:08.142Z,100.00
2023-01-03T09:53:33.119Z,100.00
2023-01-03T09:54:53.981Z,100.00
2023-01-03T09:56:21.132Z,100.00
2023-01-03T09:57:42.016Z,100.00
2023-01-03T09:59:07.837Z,100.00
2023-01-03T10:00:30.314Z,100.00
2023-01-03T10:02:01.520Z,100.00
2023-01-03T10:03:34.530Z,100.00
2023-01-03T10:05:09.456Z,100.00
2023-01-03T10:06:22.904Z,100.00
2023-01-03T10:08:03.424Z,100.00
2023-01-03T10:09:26.832Z,100.00
2023-01-03T10:10:37.220Z,100.00
2023-01-03T10:11:50.771Z,100.00
2023-01-03T10:13:07.598Z,100.00
2023-01-03T10:14:31.135Z,100.00
2023-01-03T10:15:48.368Z,100.00
2023-01-03T10:17:05.068Z,100.00
2023-01-03T10:18:22.493Z,100.00
2023-01-03T10:19:53.647Z,100.00
2023-01-03T10:21:03.869Z,100.00
2023-01-03T10:22:11.403Z,100.00
2023-01-03T10:23:16.535Z,100.00
2023-01-03T10:24:26.296Z,100.00
2023-01-03T10:25:29.418Z,100.00
2023-01-03T10:26:35.854Z,100.00
2023-01-03T10:27:46.528Z,100.00
2023-01-03T10:28:51.348Z,100.00
2023-01-03T10:29:56.922Z,100.00
2023-01-03T10:31:18.513Z,100.00
2023-01-03T10:32:47.621Z,100.00
2023-01-03T10:33:52.770Z,100.00
2023-01-03T10:35:23.731Z,100.00
2023-01-03T10:36:28.351Z,100.00
2023-01-03T10:37:30.385Z,97.89
2023-01-03T10:38:43.638Z,100.00
2023-01-03T10:39:51.113Z,100.00
2023-01-03T10:40:59.264Z,100.00
2023-01-03T10:42:03.825Z,97.53
2023-01-03T10:43:13.949Z,95.61
2023-01-03T10:44:27.693Z,93.18
2023-01-03T10:45:41.554Z,88.67
2023-01-03T10:46:53.671Z,84.08
2023-01-03T10:48:06.120Z,84.68
2023-01-03T10:49:30.002Z,87.63
2023-01-03T10:50:40.725Z,100.00
2023-01-03T10:51:53.683Z,100.00
2023-01-03T10:53:02.985Z,100.00
2023-01-03T10:54:16.852Z,100.00
2023-01-03T10:55:23.902Z,100.00
2023-01-03T10:56:31.553Z,95.28
2023-01-03T10:57:39.650Z,89.40
2023-01-03T10:58:44.505Z,88.37
2023-01-03T10:59:49.935Z,89.99
2023-01-03T11:00:56.218Z,99.60
2023-01-03T11:02:02.376Z,100.00
2023-01-03T11:03:18.966Z,100.00
2023-01-03T11:04:23.552Z,100.00
2023-01-03T11:05:26.714Z,100.00
2023-01-03T11:06:31.339Z,100.00
2023-01-03T11:07:33.901Z,100.00
2023-01-03T11:08:46.117Z,100.00
2023-01-03T11:09:53.749Z,100.00
2023-01-03T11:10:58.140Z,100.00
2023-01-03T11:12:07.074Z,100.00
2023-01-03T11:13:25.685Z,96.95
2023-01-03T11:14:30.790Z,95.25
2023-01-03T11:15:39.940Z,88.72
2023-01-03T11:16:41.925Z,96.69
2023-01-03T11:17:56.989Z,100.00
2023-01-03T11:19:06.144Z,100.00
2023-01-03T11:20:21.405Z,100.00
2023-01-03T11:21:31.057Z,98.44
2023-01-03T11:22:42.948Z,100.00
2023-01-03T11:24:05.990Z,100.00
2023-01-03T11:25:22.157Z,100.00
2023-01-03T11:26:36.375Z,100.00
2023-01-03T11:27:59.595Z,100.00
2023-01-03T11:29:17.798Z,100.00
2023-01-03T11:30:29.558Z,100.00
2023-01-03T11:31:43.974Z,100.00
2023-01-03T11:33:00.592Z,100.00
2023-01-03T11:34:21.999Z,100.00
2023-01-03T11:35:40.042Z,90.37
2023-01-03T11:36:51.168Z,79.55
2023-01-03T11:38:01.691Z,81.24
2023-01-03T11:39:26.323Z,84.80
2023-01-03T11:40:42.289Z,77.93
2023-01-03T11:42:08.517Z,78.89
2023-01-03T11:43:25.864Z,74.21
2023-01-03T11:44:54.260Z,72.63
2023-01-03T11:56:02.977Z,56.36
2023-01-03T11:57:14.046Z,58.31
2023-01-03T11:58:41.928Z,53.87
2023-01-03T12:00:02.294Z,56.70
2023-01-03T12:01:22.867Z,62.60
2023-01-03T12:02:58.332Z,64.51
2023-01-03T12:04:25.988Z,62.54
2023-01-03T12:05:43.250Z,64.28
2023-01-03T12:07:14.340Z,63.62
2023-01-03T12:08:47.089Z,70.63
2023-01-03T12:09:55.973Z,69.64
2023-01-03T12:11:08.810Z,71.48
2023-01-03T12:12:41.658Z,73.75
2023-01-03T12:13:55.554Z,74.63
2023-01-03T12:15:08.781Z,75.96
2023-01-03T12:16:23.780Z,76.38
2023-01-03T12:20:43.066Z,77.86
2023-01-03T12:21:55.159Z,79.71
2023-01-03T12:23:10.270Z,81.90
2023-01-03T12:24:20.670Z,81.88
2023-01-03T12:25:34.265Z,86.58
2023-01-03T12:26:42.720Z,86.06
2023-01-03T12:27:51.768Z,86.35
2023-01-03T12:29:03.271Z,83.19
2023-01-03T12:30:19.440Z,82.81
2023-01-03T12:31:31.970Z,90.01
2023-01-03T12:32:45.537Z,93.10
2023-01-03T12:33:58.631Z,92.04
2023-01-03T12:35:17.712Z,96.27
2023-01-03T12:36:35.935Z,92.10
2023-01-03T12:37:43.524Z,95.47
2023-01-03T12:39:02.699Z,86.88
2023-01-03T12:40:21.958Z,83.63
2023-01-03T12:41:34.629Z,78.71
2023-01-03T12:42:43.641Z,73.45
2023-01-03T12:43:54.196Z,70.92
2023-01-03T12:45:06.445Z,73.48
2023-01-03T12:46:16.465Z,75.96
2023-01-03T12:47:31.254Z,73.80
2023-01-03T12:48:48.408Z,73.65
2023-01-03T12:49:59.894Z,71.71
2023-01-03T12:51:01.964Z,65.96
2023-01-03T12:52:16.763Z,62.01
2023-01-03T12:53:29.501Z,62.58
2023-01-03T12:54:43.256Z,64.48
2023-01-03T12:56:01.075Z,60.18
2023-01-03T12:57:30.837Z,57.44
2023-01-03T12:58:49.414Z,55.78
2023-01-03T13:00:23.816Z,55.69
2023-01-03T13:01:31.451Z,57.44
2023-01-03T13:02:49.186Z,56.67
2023-01-03T13:03:59.267Z,57.38
2023-01-03T13:05:17.809Z,58.04
2023-01-03T13:06:25.309Z,55.90
2023-01-03T13:07:37.956Z,55.24
2023-01-03T13:08:48.168Z,53.31
2023-01-03T13:10:00.774Z,53.03
2023-01-03T13:11:10.345Z,52.83
2023-01-03T13:12:19.279Z,53.09
2023-01-03T13:13:24.865Z,51.78
2023-01-03T13:14:31.258Z,52.94
2023-01-03T13:15:37.316Z,53.97
2023-01-03T13:16:46.900Z,52.82
2023-01-03T13:17:54.103Z,51.28
2023-01-03T13:18:58.894Z,50.52
2023-01-03T13:20:27.965Z,52.36
2023-01-03T13:21:54.510Z,52.03
2023-01-03T13:23:02.528Z,51.67
2023-01-03T13:24:05.090Z,52.52
2023-01-03T13:25:40.073Z,52.70
2023-01-03T13:27:28.337Z,56.05
2023-01-03T13:28:36.804Z,55.33
2023-01-03T13:30:49.606Z,54.93
2023-01-03T13:32:17.139Z,55.67
2023-01-03T13:33:23.377Z,53.81
2023-01-03T13:34:45.513Z,53.04
2023-01-03T13:36:01.773Z,55.78
2023-01-03T13:37:18.609Z,55.56
2023-01-03T13:38:28.766Z,58.02
2023-01-03T13:39:39.354Z,59.18
2023-01-03T13:41:16.484Z,57.51
2023-01-03T13:42:23.472Z,60.11
2023-01-03T13:43:37.837Z,62.91
2023-01-03T13:44:41.568Z,60.63
2023-01-03T13:45:59.025Z,58.81
2023-01-03T13:47:03.640Z,57.71
2023-01-03T13:48:18.242Z,56.93
2023-01-03T13:49:26.621Z,57.66
2023-01-03T13:50:32.635Z,58.95
2023-01-03T13:51:52.560Z,59.96
2023-01-03T13:52:59.794Z,59.66
2023-01-03T13:54:08.005Z,61.29
2023-01-03T13:55:37.356Z,60.27
2023-01-03T13:57:02.508Z,61.24
2023-01-03T13:58:33.349Z,62.17
2023-01-03T13:59:44.235Z,63.18
2023-01-03T14:00:47.173Z,62.03
2023-01-03T14:02:04.325Z,61.14
2023-01-03T14:03:49.028Z,60.24
2023-01-03T14:05:21.130Z,61.89
2023-01-03T14:06:56.288Z,60.40
2023-01-03T14:08:17.463Z,59.09
2023-01-03T14:09:54.729Z,60.93
2023-01-03T14:11:19.580Z,59.67
2023-01-03T14:12:58.470Z,59.23
2023-01-03T14:14:07.996Z,56.39
2023-01-03T14:15:25.439Z,56.81
2023-01-03T14:16:39.803Z,56.18
2023-01-03T14:17:50.788Z,58.62
2023-01-03T14:19:04.382Z,58.43
2023-01-03T14:20:16.224Z,57.71
2023-01-03T14:21:26.089Z,55.76
2023-01-03T14:22:40.072Z,56.52
2023-01-03T14:23:59.618Z,54.97
2023-01-03T14:25:05.086Z,55.00
2023-01-03T14:26:15.304Z,52.99
2023-01-03T14:27:22.692Z,49.30
2023-01-03T14:28:25.993Z,47.29
2023-01-03T14:29:31.552Z,46.61
2023-01-03T14:30:37.544Z,45.60
2023-01-03T14:31:49.127Z,45.24
2023-01-03T14:32:56.172Z,45.27
2023-01-03T14:34:03.021Z,45.27
2023-01-03T14:35:05.812Z,44.03
2023-01-03T14:36:15.628Z,43.28
2023-01-03T14:37:19.891Z,43.20
2023-01-03T14:38:26.119Z,44.29
2023-01-03T14:40:36.419Z,46.70
2023-01-03T14:41:39.399Z,47.69
2023-01-03T14:42:48.059Z,47.73
2023-01-03T14:43:50.112Z,48.51
2023-01-03T14:44:58.917Z,49.99
2023-01-03T14:46:04.687Z,49.72
2023-01-03T14:49:48.830Z,50.31